sensor_id;sensor_type;location;lat;lon;timestamp;P1;durP1;ratioP1;P2;durP2;ratioP2
45392;SDS011;31129;44.810;10.334;2022-12-18T00:01:03;54.75;;;38.28;;
45392;SDS011;31129;44.810;10.334;2022-12-18T00:03:34;62.25;;;38.92;;
45392;SDS011;31129;44.810;10.334;2022-12-18T00:06:00;54.70;;;36.85;;
45392;SDS011;31129;44.810;10.334;2022-12-18T00:08:26;59.30;;;39.38;;
45392;SDS011;31129;44.810;10.334;2022-12-18T00:10:52;55.55;;;36.58;;
45392;SDS011;31129;44.810;10.334;2022-12-18T00:13:18;56.63;;;37.60;;
45392;SDS011;31129;44.810;10.334;2022-12-18T00:15:43;57.10;;;38.10;;
45392;SDS011;31129;44.810;10.334;2022-12-18T00:18:09;60.50;;;39.15;;
45392;SDS011;31129;44.810;10.334;2022-12-18T00:20:35;57.45;;;37.30;;
45392;SDS011;31129;44.810;10.334;2022-12-18T00:23:02;57.53;;;38.50;;
45392;SDS011;31129;44.810;10.334;2022-12-18T00:25:28;58.88;;;38.38;;
45392;SDS011;31129;44.810;10.334;2022-12-18T00:27:53;58.60;;;39.50;;
45392;SDS011;31129;44.810;10.334;2022-12-18T00:30:18;57.95;;;38.67;;
45392;SDS011;31129;44.810;10.334;2022-12-18T00:32:44;55.83;;;38.53;;
45392;SDS011;31129;44.810;10.334;2022-12-18T00:35:09;54.05;;;38.38;;
45392;SDS011;31129;44.810;10.334;2022-12-18T00:37:35;59.05;;;38.67;;
45392;SDS011;31129;44.810;10.334;2022-12-18T00:40:00;69.13;;;40.25;;
45392;SDS011;31129;44.810;10.334;2022-12-18T00:42:27;55.75;;;38.13;;
45392;SDS011;31129;44.810;10.334;2022-12-18T00:45:11;59.63;;;38.17;;
45392;SDS011;31129;44.810;10.334;2022-12-18T00:47:37;66.00;;;41.40;;
45392;SDS011;31129;44.810;10.334;2022-12-18T00:50:02;66.20;;;40.30;;
45392;SDS011;31129;44.810;10.334;2022-12-18T00:52:28;66.05;;;41.78;;
45392;SDS011;31129;44.810;10.334;2022-12-18T00:54:53;67.13;;;41.22;;
45392;SDS011;31129;44.810;10.334;2022-12-18T00:57:19;66.95;;;39.92;;
45392;SDS011;31129;44.810;10.334;2022-12-18T00:59:44;65.03;;;40.85;;
45392;SDS011;31129;44.810;10.334;2022-12-18T01:02:10;61.35;;;38.92;;
45392;SDS011;31129;44.810;10.334;2022-12-18T01:04:35;60.97;;;39.28;;
45392;SDS011;31129;44.810;10.334;2022-12-18T01:07:01;63.05;;;39.95;;
45392;SDS011;31129;44.810;10.334;2022-12-18T01:09:27;65.43;;;40.67;;
45392;SDS011;31129;44.810;10.334;2022-12-18T01:11:55;63.20;;;41.75;;
45392;SDS011;31129;44.810;10.334;2022-12-18T01:14:21;69.32;;;41.95;;
45392;SDS011;31129;44.810;10.334;2022-12-18T01:16:47;65.88;;;41.20;;
45392;SDS011;31129;44.810;10.334;2022-12-18T01:19:12;68.80;;;40.03;;
45392;SDS011;31129;44.810;10.334;2022-12-18T01:21:38;62.63;;;40.08;;
45392;SDS011;31129;44.810;10.334;2022-12-18T01:24:03;62.95;;;40.75;;
45392;SDS011;31129;44.810;10.334;2022-12-18T01:26:29;70.85;;;44.58;;
45392;SDS011;31129;44.810;10.334;2022-12-18T01:28:56;67.68;;;41.90;;
45392;SDS011;31129;44.810;10.334;2022-12-18T01:31:23;72.53;;;41.83;;
45392;SDS011;31129;44.810;10.334;2022-12-18T01:33:50;69.10;;;42.67;;
45392;SDS011;31129;44.810;10.334;2022-12-18T01:36:19;75.47;;;44.95;;
45392;SDS011;31129;44.810;10.334;2022-12-18T01:38:47;73.63;;;43.80;;
45392;SDS011;31129;44.810;10.334;2022-12-18T01:41:13;77.55;;;44.53;;
45392;SDS011;31129;44.810;10.334;2022-12-18T01:43:51;73.10;;;42.15;;
45392;SDS011;31129;44.810;10.334;2022-12-18T01:46:20;73.07;;;43.00;;
45392;SDS011;31129;44.810;10.334;2022-12-18T01:48:48;76.35;;;46.85;;
45392;SDS011;31129;44.810;10.334;2022-12-18T01:51:16;77.75;;;44.45;;
45392;SDS011;31129;44.810;10.334;2022-12-18T01:53:42;76.97;;;44.83;;
45392;SDS011;31129;44.810;10.334;2022-12-18T01:56:12;76.15;;;44.35;;
45392;SDS011;31129;44.810;10.334;2022-12-18T01:58:58;78.45;;;44.72;;
45392;SDS011;31129;44.810;10.334;2022-12-18T02:01:28;90.30;;;47.23;;
45392;SDS011;31129;44.810;10.334;2022-12-18T02:03:55;83.82;;;47.65;;
45392;SDS011;31129;44.810;10.334;2022-12-18T02:06:34;80.05;;;45.88;;
45392;SDS011;31129;44.810;10.334;2022-12-18T02:11:38;83.07;;;45.05;;
45392;SDS011;31129;44.810;10.334;2022-12-18T02:17:38;60.78;;;39.45;;
45392;SDS011;31129;44.810;10.334;2022-12-18T02:23:01;69.10;;;42.42;;
45392;SDS011;31129;44.810;10.334;2022-12-18T02:28:28;73.93;;;43.53;;
45392;SDS011;31129;44.810;10.334;2022-12-18T02:31:02;69.80;;;42.97;;
45392;SDS011;31129;44.810;10.334;2022-12-18T02:33:31;69.82;;;43.30;;
45392;SDS011;31129;44.810;10.334;2022-12-18T02:36:00;60.17;;;41.55;;
45392;SDS011;31129;44.810;10.334;2022-12-18T02:38:27;61.60;;;40.83;;
45392;SDS011;31129;44.810;10.334;2022-12-18T02:40:57;62.95;;;41.53;;
45392;SDS011;31129;44.810;10.334;2022-12-18T02:43:25;68.22;;;42.92;;
45392;SDS011;31129;44.810;10.334;2022-12-18T02:45:55;61.80;;;41.10;;
45392;SDS011;31129;44.810;10.334;2022-12-18T02:48:24;76.10;;;44.78;;
45392;SDS011;31129;44.810;10.334;2022-12-18T02:53:45;63.60;;;43.28;;
45392;SDS011;31129;44.810;10.334;2022-12-18T02:56:29;62.97;;;42.40;;
45392;SDS011;31129;44.810;10.334;2022-12-18T02:59:08;66.18;;;43.08;;
45392;SDS011;31129;44.810;10.334;2022-12-18T03:04:12;57.10;;;39.53;;
45392;SDS011;31129;44.810;10.334;2022-12-18T03:06:43;58.17;;;40.47;;
45392;SDS011;31129;44.810;10.334;2022-12-18T03:09:31;58.83;;;40.20;;
45392;SDS011;31129;44.810;10.334;2022-12-18T03:12:04;58.80;;;39.72;;
45392;SDS011;31129;44.810;10.334;2022-12-18T03:15:14;62.17;;;40.03;;
45392;SDS011;31129;44.810;10.334;2022-12-18T03:17:43;61.20;;;39.97;;
45392;SDS011;31129;44.810;10.334;2022-12-18T03:20:18;58.53;;;38.05;;
45392;SDS011;31129;44.810;10.334;2022-12-18T03:22:49;55.38;;;36.83;;
45392;SDS011;31129;44.810;10.334;2022-12-18T03:25:18;85.13;;;38.67;;
45392;SDS011;31129;44.810;10.334;2022-12-18T03:27:49;60.22;;;36.63;;
45392;SDS011;31129;44.810;10.334;2022-12-18T03:30:22;77.68;;;35.95;;
45392;SDS011;31129;44.810;10.334;2022-12-18T03:35:42;56.90;;;38.55;;
45392;SDS011;31129;44.810;10.334;2022-12-18T03:38:10;95.93;;;37.05;;
45392;SDS011;31129;44.810;10.334;2022-12-18T03:44:14;64.28;;;38.25;;
45392;SDS011;31129;44.810;10.334;2022-12-18T03:52:02;89.53;;;37.80;;
45392;SDS011;31129;44.810;10.334;2022-12-18T03:54:32;59.53;;;37.90;;
45392;SDS011;31129;44.810;10.334;2022-12-18T03:57:07;61.03;;;37.72;;
45392;SDS011;31129;44.810;10.334;2022-12-18T03:59:48;73.43;;;36.72;;
45392;SDS011;31129;44.810;10.334;2022-12-18T04:02:18;53.60;;;36.45;;
45392;SDS011;31129;44.810;10.334;2022-12-18T04:04:44;88.50;;;37.70;;
45392;SDS011;31129;44.810;10.334;2022-12-18T04:07:16;67.45;;;36.38;;
45392;SDS011;31129;44.810;10.334;2022-12-18T04:09:43;107.10;;;37.72;;
45392;SDS011;31129;44.810;10.334;2022-12-18T04:12:12;73.18;;;36.53;;
45392;SDS011;31129;44.810;10.334;2022-12-18T04:14:38;87.70;;;35.88;;
45392;SDS011;31129;44.810;10.334;2022-12-18T04:19:32;72.80;;;32.40;;
45392;SDS011;31129;44.810;10.334;2022-12-18T04:21:59;59.40;;;35.10;;
45392;SDS011;31129;44.810;10.334;2022-12-18T04:24:25;67.13;;;36.00;;
45392;SDS011;31129;44.810;10.334;2022-12-18T04:27:10;55.25;;;34.92;;
45392;SDS011;31129;44.810;10.334;2022-12-18T04:29:43;62.17;;;35.97;;
45392;SDS011;31129;44.810;10.334;2022-12-18T04:32:09;55.80;;;37.17;;
45392;SDS011;31129;44.810;10.334;2022-12-18T04:34:35;59.70;;;38.17;;
45392;SDS011;31129;44.810;10.334;2022-12-18T04:37:01;52.70;;;35.97;;
45392;SDS011;31129;44.810;10.334;2022-12-18T04:39:27;55.90;;;34.72;;
45392;SDS011;31129;44.810;10.334;2022-12-18T04:41:55;58.92;;;36.25;;
45392;SDS011;31129;44.810;10.334;2022-12-18T04:44:21;57.00;;;34.67;;
45392;SDS011;31129;44.810;10.334;2022-12-18T04:46:46;81.85;;;35.35;;
45392;SDS011;31129;44.810;10.334;2022-12-18T04:49:11;85.38;;;34.85;;
45392;SDS011;31129;44.810;10.334;2022-12-18T04:51:37;67.38;;;35.17;;
45392;SDS011;31129;44.810;10.334;2022-12-18T04:54:03;62.75;;;36.28;;
45392;SDS011;31129;44.810;10.334;2022-12-18T04:56:29;76.03;;;36.35;;
45392;SDS011;31129;44.810;10.334;2022-12-18T04:58:56;72.32;;;38.35;;
45392;SDS011;31129;44.810;10.334;2022-12-18T05:01:21;95.88;;;37.78;;
45392;SDS011;31129;44.810;10.334;2022-12-18T05:03:47;93.07;;;36.35;;
45392;SDS011;31129;44.810;10.334;2022-12-18T05:06:12;70.43;;;36.10;;
45392;SDS011;31129;44.810;10.334;2022-12-18T05:08:38;67.57;;;34.38;;
45392;SDS011;31129;44.810;10.334;2022-12-18T05:11:08;120.65;;;39.47;;
45392;SDS011;31129;44.810;10.334;2022-12-18T05:13:38;65.78;;;35.88;;
45392;SDS011;31129;44.810;10.334;2022-12-18T05:18:29;128.30;;;36.17;;
45392;SDS011;31129;44.810;10.334;2022-12-18T05:20:55;84.60;;;35.22;;
45392;SDS011;31129;44.810;10.334;2022-12-18T05:23:21;80.53;;;35.83;;
45392;SDS011;31129;44.810;10.334;2022-12-18T05:25:51;127.20;;;37.45;;
45392;SDS011;31129;44.810;10.334;2022-12-18T05:28:18;102.45;;;36.90;;
45392;SDS011;31129;44.810;10.334;2022-12-18T05:30:51;256.10;;;42.70;;
45392;SDS011;31129;44.810;10.334;2022-12-18T05:33:21;245.38;;;42.17;;
45392;SDS011;31129;44.810;10.334;2022-12-18T05:35:54;124.43;;;38.28;;
45392;SDS011;31129;44.810;10.334;2022-12-18T05:38:21;124.60;;;38.80;;
45392;SDS011;31129;44.810;10.334;2022-12-18T05:40:50;109.13;;;40.75;;
45392;SDS011;31129;44.810;10.334;2022-12-18T05:43:17;128.70;;;42.55;;
45392;SDS011;31129;44.810;10.334;2022-12-18T05:45:44;140.45;;;42.97;;
45392;SDS011;31129;44.810;10.334;2022-12-18T05:48:10;170.13;;;45.35;;
45392;SDS011;31129;44.810;10.334;2022-12-18T05:50:36;98.38;;;43.30;;
45392;SDS011;31129;44.810;10.334;2022-12-18T05:53:03;82.65;;;42.25;;
45392;SDS011;31129;44.810;10.334;2022-12-18T05:55:33;120.00;;;42.90;;
45392;SDS011;31129;44.810;10.334;2022-12-18T05:58:00;105.28;;;39.30;;
45392;SDS011;31129;44.810;10.334;2022-12-18T06:00:26;112.10;;;44.03;;
45392;SDS011;31129;44.810;10.334;2022-12-18T06:02:51;142.32;;;41.50;;
45392;SDS011;31129;44.810;10.334;2022-12-18T06:05:17;115.15;;;42.60;;
45392;SDS011;31129;44.810;10.334;2022-12-18T06:07:42;117.63;;;45.55;;
45392;SDS011;31129;44.810;10.334;2022-12-18T06:10:08;199.70;;;45.92;;
45392;SDS011;31129;44.810;10.334;2022-12-18T06:12:36;143.15;;;45.33;;
45392;SDS011;31129;44.810;10.334;2022-12-18T06:15:02;116.60;;;43.25;;
45392;SDS011;31129;44.810;10.334;2022-12-18T06:17:29;105.47;;;40.80;;
45392;SDS011;31129;44.810;10.334;2022-12-18T06:19:55;112.82;;;43.67;;
45392;SDS011;31129;44.810;10.334;2022-12-18T06:22:20;115.75;;;45.28;;
45392;SDS011;31129;44.810;10.334;2022-12-18T06:24:49;105.93;;;45.47;;
45392;SDS011;31129;44.810;10.334;2022-12-18T06:29:40;121.97;;;45.28;;
45392;SDS011;31129;44.810;10.334;2022-12-18T06:32:05;129.77;;;46.38;;
45392;SDS011;31129;44.810;10.334;2022-12-18T06:34:31;130.85;;;46.95;;
45392;SDS011;31129;44.810;10.334;2022-12-18T06:36:57;151.35;;;48.88;;
45392;SDS011;31129;44.810;10.334;2022-12-18T06:39:23;181.32;;;47.80;;
45392;SDS011;31129;44.810;10.334;2022-12-18T06:41:49;103.43;;;44.38;;
45392;SDS011;31129;44.810;10.334;2022-12-18T06:44:14;134.60;;;45.22;;
45392;SDS011;31129;44.810;10.334;2022-12-18T06:46:40;112.15;;;45.55;;
45392;SDS011;31129;44.810;10.334;2022-12-18T06:49:06;88.85;;;44.38;;
45392;SDS011;31129;44.810;10.334;2022-12-18T06:51:34;109.50;;;44.85;;
45392;SDS011;31129;44.810;10.334;2022-12-18T06:53:59;94.22;;;44.75;;
45392;SDS011;31129;44.810;10.334;2022-12-18T06:56:25;108.07;;;46.88;;
45392;SDS011;31129;44.810;10.334;2022-12-18T06:58:50;91.78;;;45.97;;
45392;SDS011;31129;44.810;10.334;2022-12-18T07:01:16;93.05;;;43.42;;
45392;SDS011;31129;44.810;10.334;2022-12-18T07:03:42;90.88;;;44.90;;
45392;SDS011;31129;44.810;10.334;2022-12-18T07:08:43;88.97;;;44.00;;
45392;SDS011;31129;44.810;10.334;2022-12-18T07:11:09;105.60;;;45.33;;
45392;SDS011;31129;44.810;10.334;2022-12-18T07:13:35;120.13;;;46.50;;
45392;SDS011;31129;44.810;10.334;2022-12-18T07:16:04;113.60;;;45.88;;
45392;SDS011;31129;44.810;10.334;2022-12-18T07:18:30;99.25;;;45.78;;
45392;SDS011;31129;44.810;10.334;2022-12-18T07:20:55;96.72;;;46.92;;
45392;SDS011;31129;44.810;10.334;2022-12-18T07:23:21;98.50;;;47.00;;
45392;SDS011;31129;44.810;10.334;2022-12-18T07:25:46;109.60;;;46.58;;
45392;SDS011;31129;44.810;10.334;2022-12-18T07:28:12;105.47;;;47.08;;
45392;SDS011;31129;44.810;10.334;2022-12-18T07:30:37;111.70;;;47.97;;
45392;SDS011;31129;44.810;10.334;2022-12-18T07:33:06;98.28;;;44.80;;
45392;SDS011;31129;44.810;10.334;2022-12-18T07:37:58;113.72;;;45.30;;
45392;SDS011;31129;44.810;10.334;2022-12-18T07:40:26;103.78;;;46.53;;
45392;SDS011;31129;44.810;10.334;2022-12-18T07:42:51;122.63;;;45.05;;
45392;SDS011;31129;44.810;10.334;2022-12-18T07:45:17;111.25;;;43.53;;
45392;SDS011;31129;44.810;10.334;2022-12-18T07:47:42;105.60;;;46.38;;
45392;SDS011;31129;44.810;10.334;2022-12-18T07:50:08;101.07;;;45.22;;
45392;SDS011;31129;44.810;10.334;2022-12-18T07:52:34;97.25;;;47.20;;
45392;SDS011;31129;44.810;10.334;2022-12-18T07:55:00;139.48;;;46.95;;
45392;SDS011;31129;44.810;10.334;2022-12-18T07:57:25;115.70;;;45.38;;
45392;SDS011;31129;44.810;10.334;2022-12-18T07:59:51;134.52;;;45.53;;
45392;SDS011;31129;44.810;10.334;2022-12-18T08:02:16;121.68;;;49.65;;
45392;SDS011;31129;44.810;10.334;2022-12-18T08:04:42;155.10;;;49.05;;
45392;SDS011;31129;44.810;10.334;2022-12-18T08:07:07;102.13;;;47.28;;
45392;SDS011;31129;44.810;10.334;2022-12-18T08:09:33;103.25;;;47.88;;
45392;SDS011;31129;44.810;10.334;2022-12-18T08:11:58;103.05;;;45.28;;
45392;SDS011;31129;44.810;10.334;2022-12-18T08:14:24;104.55;;;45.85;;
45392;SDS011;31129;44.810;10.334;2022-12-18T08:16:49;99.72;;;46.20;;
45392;SDS011;31129;44.810;10.334;2022-12-18T08:19:15;92.43;;;44.28;;
45392;SDS011;31129;44.810;10.334;2022-12-18T08:21:41;102.88;;;45.28;;
45392;SDS011;31129;44.810;10.334;2022-12-18T08:24:06;150.32;;;47.33;;
45392;SDS011;31129;44.810;10.334;2022-12-18T08:26:34;111.00;;;46.40;;
45392;SDS011;31129;44.810;10.334;2022-12-18T08:28:59;124.25;;;48.55;;
45392;SDS011;31129;44.810;10.334;2022-12-18T08:31:26;111.82;;;49.17;;
45392;SDS011;31129;44.810;10.334;2022-12-18T08:33:52;117.80;;;47.13;;
45392;SDS011;31129;44.810;10.334;2022-12-18T08:36:19;101.32;;;45.28;;
45392;SDS011;31129;44.810;10.334;2022-12-18T08:38:45;101.00;;;46.10;;
45392;SDS011;31129;44.810;10.334;2022-12-18T08:41:11;104.75;;;44.33;;
45392;SDS011;31129;44.810;10.334;2022-12-18T08:43:39;104.60;;;45.43;;
45392;SDS011;31129;44.810;10.334;2022-12-18T08:46:24;106.38;;;47.35;;
45392;SDS011;31129;44.810;10.334;2022-12-18T08:48:51;98.05;;;44.38;;
45392;SDS011;31129;44.810;10.334;2022-12-18T08:51:17;124.53;;;47.22;;
45392;SDS011;31129;44.810;10.334;2022-12-18T08:53:44;115.05;;;47.00;;
45392;SDS011;31129;44.810;10.334;2022-12-18T08:56:10;108.88;;;47.72;;
45392;SDS011;31129;44.810;10.334;2022-12-18T08:58:36;122.85;;;46.85;;
45392;SDS011;31129;44.810;10.334;2022-12-18T09:01:06;96.30;;;43.22;;
45392;SDS011;31129;44.810;10.334;2022-12-18T09:03:37;94.05;;;41.85;;
45392;SDS011;31129;44.810;10.334;2022-12-18T09:06:05;93.38;;;43.88;;
45392;SDS011;31129;44.810;10.334;2022-12-18T09:08:34;81.65;;;40.72;;
45392;SDS011;31129;44.810;10.334;2022-12-18T09:11:01;85.70;;;41.42;;
45392;SDS011;31129;44.810;10.334;2022-12-18T09:13:27;88.32;;;39.92;;
45392;SDS011;31129;44.810;10.334;2022-12-18T09:15:53;113.20;;;41.83;;
45392;SDS011;31129;44.810;10.334;2022-12-18T09:18:22;86.75;;;41.78;;
45392;SDS011;31129;44.810;10.334;2022-12-18T09:20:49;74.05;;;37.50;;
45392;SDS011;31129;44.810;10.334;2022-12-18T09:23:18;82.32;;;39.83;;
45392;SDS011;31129;44.810;10.334;2022-12-18T09:25:43;83.50;;;40.17;;
45392;SDS011;31129;44.810;10.334;2022-12-18T09:28:10;85.70;;;39.63;;
45392;SDS011;31129;44.810;10.334;2022-12-18T09:33:04;83.10;;;38.20;;
45392;SDS011;31129;44.810;10.334;2022-12-18T09:35:29;72.75;;;35.17;;
45392;SDS011;31129;44.810;10.334;2022-12-18T09:37:55;72.85;;;37.40;;
45392;SDS011;31129;44.810;10.334;2022-12-18T09:40:22;71.65;;;36.40;;
45392;SDS011;31129;44.810;10.334;2022-12-18T09:42:57;67.50;;;34.80;;
45392;SDS011;31129;44.810;10.334;2022-12-18T09:45:25;70.40;;;36.70;;
45392;SDS011;31129;44.810;10.334;2022-12-18T09:47:52;72.43;;;34.85;;
45392;SDS011;31129;44.810;10.334;2022-12-18T09:52:52;69.60;;;34.45;;
45392;SDS011;31129;44.810;10.334;2022-12-18T09:55:34;68.53;;;33.05;;
45392;SDS011;31129;44.810;10.334;2022-12-18T09:58:06;71.80;;;34.38;;
45392;SDS011;31129;44.810;10.334;2022-12-18T10:00:40;64.93;;;33.03;;
45392;SDS011;31129;44.810;10.334;2022-12-18T10:03:09;65.90;;;34.45;;
45392;SDS011;31129;44.810;10.334;2022-12-18T10:14:10;69.45;;;35.45;;
45392;SDS011;31129;44.810;10.334;2022-12-18T10:25:05;61.83;;;32.60;;
45392;SDS011;31129;44.810;10.334;2022-12-18T10:30:12;62.38;;;32.85;;
45392;SDS011;31129;44.810;10.334;2022-12-18T10:32:40;59.72;;;32.13;;
45392;SDS011;31129;44.810;10.334;2022-12-18T10:35:08;62.60;;;31.90;;
45392;SDS011;31129;44.810;10.334;2022-12-18T10:43:30;61.10;;;34.00;;
45392;SDS011;31129;44.810;10.334;2022-12-18T10:51:15;62.05;;;33.63;;
45392;SDS011;31129;44.810;10.334;2022-12-18T10:53:52;61.22;;;32.30;;
45392;SDS011;31129;44.810;10.334;2022-12-18T10:56:30;60.55;;;33.88;;
45392;SDS011;31129;44.810;10.334;2022-12-18T10:59:05;60.08;;;33.60;;
45392;SDS011;31129;44.810;10.334;2022-12-18T11:04:17;63.13;;;32.33;;
45392;SDS011;31129;44.810;10.334;2022-12-18T11:06:52;60.38;;;31.60;;
45392;SDS011;31129;44.810;10.334;2022-12-18T11:09:21;56.83;;;32.38;;
45392;SDS011;31129;44.810;10.334;2022-12-18T11:11:54;63.25;;;33.80;;
45392;SDS011;31129;44.810;10.334;2022-12-18T11:14:28;63.67;;;32.85;;
45392;SDS011;31129;44.810;10.334;2022-12-18T11:16:57;62.45;;;32.55;;
45392;SDS011;31129;44.810;10.334;2022-12-18T11:21:50;65.65;;;32.13;;
45392;SDS011;31129;44.810;10.334;2022-12-18T11:24:27;65.95;;;33.83;;
45392;SDS011;31129;44.810;10.334;2022-12-18T11:26:57;65.05;;;34.45;;
45392;SDS011;31129;44.810;10.334;2022-12-18T11:29:31;74.93;;;35.47;;
45392;SDS011;31129;44.810;10.334;2022-12-18T11:34:39;71.57;;;36.30;;
45392;SDS011;31129;44.810;10.334;2022-12-18T11:37:10;71.35;;;36.28;;
45392;SDS011;31129;44.810;10.334;2022-12-18T11:39:57;64.45;;;33.78;;
45392;SDS011;31129;44.810;10.334;2022-12-18T11:42:39;69.32;;;35.30;;
45392;SDS011;31129;44.810;10.334;2022-12-18T11:47:42;69.22;;;34.28;;
45392;SDS011;31129;44.810;10.334;2022-12-18T11:50:21;66.60;;;32.53;;
45392;SDS011;31129;44.810;10.334;2022-12-18T11:52:49;61.40;;;31.77;;
45392;SDS011;31129;44.810;10.334;2022-12-18T11:55:16;61.08;;;33.08;;
45392;SDS011;31129;44.810;10.334;2022-12-18T12:00:31;59.95;;;32.67;;
45392;SDS011;31129;44.810;10.334;2022-12-18T12:03:11;65.53;;;34.03;;
45392;SDS011;31129;44.810;10.334;2022-12-18T12:11:22;60.17;;;32.03;;
45392;SDS011;31129;44.810;10.334;2022-12-18T12:16:41;65.68;;;33.03;;
45392;SDS011;31129;44.810;10.334;2022-12-18T12:27:35;50.33;;;29.83;;
45392;SDS011;31129;44.810;10.334;2022-12-18T12:30:21;48.58;;;28.85;;
45392;SDS011;31129;44.810;10.334;2022-12-18T12:38:25;55.38;;;31.63;;
45392;SDS011;31129;44.810;10.334;2022-12-18T12:41:13;49.70;;;29.80;;
45392;SDS011;31129;44.810;10.334;2022-12-18T12:44:01;54.05;;;31.02;;
45392;SDS011;31129;44.810;10.334;2022-12-18T12:46:29;51.75;;;29.35;;
45392;SDS011;31129;44.810;10.334;2022-12-18T12:49:04;52.30;;;32.08;;
45392;SDS011;31129;44.810;10.334;2022-12-18T12:51:40;53.53;;;32.10;;
45392;SDS011;31129;44.810;10.334;2022-12-18T12:54:14;49.42;;;29.95;;
45392;SDS011;31129;44.810;10.334;2022-12-18T13:12:37;48.25;;;28.23;;
45392;SDS011;31129;44.810;10.334;2022-12-18T13:15:22;48.55;;;28.63;;
45392;SDS011;31129;44.810;10.334;2022-12-18T13:18:04;46.08;;;28.15;;
45392;SDS011;31129;44.810;10.334;2022-12-18T13:20:33;47.25;;;29.05;;
45392;SDS011;31129;44.810;10.334;2022-12-18T13:28:22;44.90;;;28.73;;
45392;SDS011;31129;44.810;10.334;2022-12-18T13:31:08;41.60;;;23.63;;
45392;SDS011;31129;44.810;10.334;2022-12-18T13:36:09;64.15;;;32.08;;
45392;SDS011;31129;44.810;10.334;2022-12-18T13:38:38;50.28;;;29.80;;
45392;SDS011;31129;44.810;10.334;2022-12-18T13:43:43;47.75;;;29.30;;
45392;SDS011;31129;44.810;10.334;2022-12-18T13:48:59;48.83;;;28.73;;
45392;SDS011;31129;44.810;10.334;2022-12-18T13:51:30;42.50;;;25.88;;
45392;SDS011;31129;44.810;10.334;2022-12-18T13:53:59;42.75;;;27.75;;
45392;SDS011;31129;44.810;10.334;2022-12-18T13:56:28;47.05;;;28.45;;
45392;SDS011;31129;44.810;10.334;2022-12-18T14:01:42;48.25;;;30.55;;
45392;SDS011;31129;44.810;10.334;2022-12-18T14:04:10;49.28;;;30.23;;
45392;SDS011;31129;44.810;10.334;2022-12-18T14:06:36;58.17;;;31.88;;
45392;SDS011;31129;44.810;10.334;2022-12-18T14:09:02;54.25;;;33.08;;
45392;SDS011;31129;44.810;10.334;2022-12-18T14:11:28;52.95;;;30.58;;
45392;SDS011;31129;44.810;10.334;2022-12-18T14:13:55;55.53;;;31.75;;
45392;SDS011;31129;44.810;10.334;2022-12-18T14:16:21;50.55;;;30.25;;
45392;SDS011;31129;44.810;10.334;2022-12-18T14:18:52;48.15;;;31.23;;
45392;SDS011;31129;44.810;10.334;2022-12-18T14:21:29;46.83;;;30.20;;
45392;SDS011;31129;44.810;10.334;2022-12-18T14:24:04;49.97;;;30.42;;
45392;SDS011;31129;44.810;10.334;2022-12-18T14:26:40;53.55;;;30.67;;
45392;SDS011;31129;44.810;10.334;2022-12-18T14:34:51;53.92;;;31.63;;
45392;SDS011;31129;44.810;10.334;2022-12-18T14:37:23;53.72;;;32.78;;
45392;SDS011;31129;44.810;10.334;2022-12-18T14:42:23;55.17;;;33.63;;
45392;SDS011;31129;44.810;10.334;2022-12-18T14:45:31;51.22;;;33.38;;
45392;SDS011;31129;44.810;10.334;2022-12-18T14:47:57;54.70;;;32.60;;
45392;SDS011;31129;44.810;10.334;2022-12-18T14:50:23;54.35;;;34.08;;
45392;SDS011;31129;44.810;10.334;2022-12-18T14:52:49;56.40;;;35.25;;
45392;SDS011;31129;44.810;10.334;2022-12-18T14:55:19;60.83;;;34.25;;
45392;SDS011;31129;44.810;10.334;2022-12-18T14:57:49;55.20;;;33.72;;
45392;SDS011;31129;44.810;10.334;2022-12-18T15:00:18;57.60;;;35.42;;
45392;SDS011;31129;44.810;10.334;2022-12-18T15:05:32;61.28;;;34.25;;
45392;SDS011;31129;44.810;10.334;2022-12-18T15:07:59;56.13;;;34.75;;
45392;SDS011;31129;44.810;10.334;2022-12-18T15:10:26;62.83;;;36.53;;
45392;SDS011;31129;44.810;10.334;2022-12-18T15:20:52;56.83;;;35.58;;
45392;SDS011;31129;44.810;10.334;2022-12-18T15:23:24;57.25;;;36.42;;
45392;SDS011;31129;44.810;10.334;2022-12-18T15:25:58;57.92;;;36.13;;
45392;SDS011;31129;44.810;10.334;2022-12-18T15:28:31;66.10;;;36.28;;
45392;SDS011;31129;44.810;10.334;2022-12-18T15:31:04;64.40;;;37.40;;
45392;SDS011;31129;44.810;10.334;2022-12-18T15:36:01;62.63;;;35.15;;
45392;SDS011;31129;44.810;10.334;2022-12-18T15:38:29;64.10;;;36.20;;
45392;SDS011;31129;44.810;10.334;2022-12-18T15:40:55;71.70;;;38.65;;
45392;SDS011;31129;44.810;10.334;2022-12-18T15:43:23;62.03;;;36.65;;
45392;SDS011;31129;44.810;10.334;2022-12-18T15:45:59;66.28;;;37.75;;
45392;SDS011;31129;44.810;10.334;2022-12-18T15:48:29;60.15;;;35.88;;
45392;SDS011;31129;44.810;10.334;2022-12-18T15:53:24;62.45;;;36.15;;
45392;SDS011;31129;44.810;10.334;2022-12-18T15:55:52;62.95;;;37.85;;
45392;SDS011;31129;44.810;10.334;2022-12-18T15:58:37;65.65;;;38.00;;
45392;SDS011;31129;44.810;10.334;2022-12-18T16:01:02;66.63;;;37.97;;
45392;SDS011;31129;44.810;10.334;2022-12-18T16:03:28;69.93;;;38.35;;
45392;SDS011;31129;44.810;10.334;2022-12-18T16:05:53;63.17;;;37.38;;
45392;SDS011;31129;44.810;10.334;2022-12-18T16:08:19;65.65;;;39.08;;
45392;SDS011;31129;44.810;10.334;2022-12-18T16:10:46;73.47;;;37.35;;
45392;SDS011;31129;44.810;10.334;2022-12-18T16:13:12;66.80;;;38.90;;
45392;SDS011;31129;44.810;10.334;2022-12-18T16:15:44;74.05;;;40.22;;
45392;SDS011;31129;44.810;10.334;2022-12-18T16:18:09;68.70;;;39.63;;
45392;SDS011;31129;44.810;10.334;2022-12-18T16:20:35;69.65;;;39.25;;
45392;SDS011;31129;44.810;10.334;2022-12-18T16:23:00;67.25;;;39.20;;
45392;SDS011;31129;44.810;10.334;2022-12-18T16:25:27;67.78;;;39.88;;
45392;SDS011;31129;44.810;10.334;2022-12-18T16:27:53;72.07;;;40.22;;
45392;SDS011;31129;44.810;10.334;2022-12-18T16:30:27;72.35;;;40.28;;
45392;SDS011;31129;44.810;10.334;2022-12-18T16:32:55;78.40;;;40.90;;
45392;SDS011;31129;44.810;10.334;2022-12-18T16:35:27;77.55;;;42.13;;
45392;SDS011;31129;44.810;10.334;2022-12-18T16:37:52;69.07;;;39.53;;
45392;SDS011;31129;44.810;10.334;2022-12-18T16:40:18;73.63;;;39.90;;
45392;SDS011;31129;44.810;10.334;2022-12-18T16:42:44;69.68;;;40.30;;
45392;SDS011;31129;44.810;10.334;2022-12-18T16:45:12;68.22;;;37.10;;
45392;SDS011;31129;44.810;10.334;2022-12-18T16:50:05;68.88;;;37.22;;
45392;SDS011;31129;44.810;10.334;2022-12-18T16:52:34;67.63;;;38.80;;
45392;SDS011;31129;44.810;10.334;2022-12-18T16:55:00;66.18;;;37.30;;
45392;SDS011;31129;44.810;10.334;2022-12-18T16:57:25;72.60;;;39.13;;
45392;SDS011;31129;44.810;10.334;2022-12-18T16:59:51;76.85;;;39.67;;
45392;SDS011;31129;44.810;10.334;2022-12-18T17:02:24;70.28;;;38.83;;
45392;SDS011;31129;44.810;10.334;2022-12-18T17:04:54;71.65;;;38.55;;
45392;SDS011;31129;44.810;10.334;2022-12-18T17:07:21;73.10;;;38.65;;